AirNav   Pilot Hours Calculator
 
 1093 users online  

1MA5 Unknown Field Airport
Southborough, Massachusetts, USA

GOING TO SOUTHBOROUGH?


FAA INFORMATION EFFECTIVE 25 MARCH 2021

Location

FAA Identifier: 1MA5
Lat/Long: 42-16-44.3400N 071-32-52.2330W
42-16.739000N 071-32.870550W
42.2789833,-71.5478425
(estimated)
Elevation: 432 ft. / 132 m (estimated)
Variation: 15W (1985)
From city: 3 miles ENE of SOUTHBOROUGH, MA
Time zone: UTC -4 (UTC -5 during Standard Time)
Zip code: 01772

Airport Operations

Airport use: Private use. Permission required prior to landing
Activation date: 07/1985
Control tower: no
ARTCC: BOSTON CENTER
FSS: BRIDGEPORT FLIGHT SERVICE STATION
Attendance: UNATNDD
Wind indicator: no
Segmented circle: no
Landing fee: yes

Airport Communications

WX ASOS at ORH (15 nm W): PHONE 508-795-7546
WX ASOS at BED (16 nm NE): 124.6 (781-274-9733)
WX ASOS at OWD (17 nm E): 119.95 (781-762-4314)
WX ASOS at FIT (19 nm NW): 135.175 (978-343-9121)

Nearby radio navigation aids

VOR radial/distance  VOR name  Freq  Var
PUTr048/23.5PUTNAM VOR/DME117.4014W
BOSr275/25.2BOSTON VOR/DME112.7016W
GDMr139/27.7GARDNER VOR/DME110.6014W
PVDr005/33.7PROVIDENCE VOR/DME115.6014W
LWMr231/34.2LAWRENCE VOR/DME112.5015W
MHTr208/36.2MANCHESTER VOR/DME114.4015W

Airport Services

Runway Information

Runway 11/29

Dimensions: 1500 x 30 ft. / 457 x 9 m
Surface: asphalt
RUNWAY 11  RUNWAY 29
Traffic pattern: leftleft
Obstructions: 380 ft. tower, marked and lighted, 2200 ft. from runway75 ft. trees, 200 ft. from runway

Airport Ownership and Management from official FAA records

Ownership: Privately-owned
Owner: JOHN H. GARABEDIAN
24 FAIRVIEW DR
SOUTHBOROUGH, MA 01772
Phone (508) 361-2345
Manager: JOHN H. GARABEDIAN
24 FAIRVIEW DR
SOUTHBOROUGH, MA 01772
Phone 508-361-2345

Airport Operational Statistics

Aircraft based on the field: 3
Single engine airplanes: 2
Multi engine airplanes: 1
    

Additional Remarks

FOR CD CTC BOSTON APCH AT 603-594-5551.

Instrument Procedures

There are no published instrument procedures at 1MA5.

Some nearby airports with instrument procedures:

1B6 - Hopedale Industrial Park Airport (10 nm S)
6B6 - Minute Man Air Field (11 nm N)
KORH - Worcester Regional Airport (15 nm W)
KBED - Laurence G Hanscom Field Airport (16 nm NE)
KOWD - Norwood Memorial Airport (17 nm E)
KFIT - Fitchburg Municipal Airport (19 nm NW)
 
Loc | Ops | Rwys | IFR | FBO | Links
Com | Nav | Svcs | Stats | Notes
Area around 1MA5 (Unknown Field Airport)
 
Road maps at: MapQuest Bing Google
 
Aerial photo
No photo
 
Sectional chart

 
Airport distance calculator
Flying to Unknown Field Airport? Find the distance to fly.

From to 1MA5

Sunrise and sunset
Times for 17-Apr-2021
 Local
(UTC-4)
 Zulu
(UTC)
Morning civil twilight05:3409:34
Sunrise06:0310:03
Sunset19:2823:28
Evening civil twilight19:5823:58

Current date and time
Zulu (UTC)  17-Apr-2021 13:37:10
Local (UTC-4)  17-Apr-2021 09:37:10
 
METAR
KORH 
14nm W 
171254Z 35010KT 10SM BKN015 OVC020 03/00 A2968 RMK AO2 SLP060 T00330000
KBED 
16nm NE 
171251Z 35009KT 5SM -RA BR OVC012 04/02 A2970 RMK AO2 RAB1157 SLP072 P0001 T00390022 $
KOWD 
18nm E 
171253Z 35007KT 10SM OVC019 06/01 A2970 RMK AO2 SLP057 T00560011
KFIT 
19nm NW 
171252Z AUTO 36008KT 10SM -RA FEW017 BKN027 OVC036 04/02 A2972 RMK AO2 SLP067 P0001 T00390022
KMQE 
20nm E 
171251Z AUTO 35009G17KT 310V020 02/01 A2966 RMK AO1 SLP060 T00220011
KSFZ 
22nm S 
171256Z AUTO 33008KT 10SM OVC018 04/03 A2969 RMK AO2 SLP065 T00440033 $
KBOS 
24nm E 
171254Z 33014G20KT 10SM -RA FEW014 BKN023 OVC050 04/01 A2970 RMK AO2 RAB23 SLP057 P0001 T00440011
TAF
KORH 
14nm W 
171120Z 1712/1812 33008KT P6SM OVC015 FM171600 33008KT P6SM OVC020 FM172000 33008KT P6SM OVC035 FM172300 33005KT P6SM BKN045 FM180500 30004KT 5SM BR BKN050
KBED 
16nm NE 
171120Z 1712/1812 33009KT P6SM VCSH OVC015 FM171400 34009KT P6SM VCSH OVC010 FM171600 34009KT P6SM OVC015 FM172200 34005KT P6SM OVC030 FM180000 35004KT P6SM OVC035 FM180600 00000KT 3SM BR OVC045
NOTAMs
Click for the latest NOTAMs
NOTAMs are issued by the DoD/FAA and will open in a separate window not controlled by AirNav.

 

 
 

Would you like to see your business listed on this page?

 If your business provides an interesting product or service to pilots, flight crews, aircraft, or users of the Unknown Field Airport, you should consider listing it here.  To start the listing process, click on the button below
 
Add a business
 

Other Pages about Unknown Field Airport

Update a link
 
Copyright © AirNav, LLC. All rights reserved. Privacy Policy  Contact